sensor_id;sensor_type;location;lat;lon;timestamp;temperature;humidity
5779;DHT22;2916;49.798;10.022;2022-07-12T00:01:13;15.90;99.90
5779;DHT22;2916;49.798;10.022;2022-07-12T00:03:41;15.90;99.90
5779;DHT22;2916;49.798;10.022;2022-07-12T00:06:08;16.00;99.90
5779;DHT22;2916;49.798;10.022;2022-07-12T00:08:35;15.90;99.90
5779;DHT22;2916;49.798;10.022;2022-07-12T00:11:04;16.00;99.90
5779;DHT22;2916;49.798;10.022;2022-07-12T00:13:32;16.00;99.90
5779;DHT22;2916;49.798;10.022;2022-07-12T00:16:00;16.00;99.90
5779;DHT22;2916;49.798;10.022;2022-07-12T00:18:27;16.00;99.90
5779;DHT22;2916;49.798;10.022;2022-07-12T00:20:54;16.00;99.90
5779;DHT22;2916;49.798;10.022;2022-07-12T00:23:21;16.00;99.90
5779;DHT22;2916;49.798;10.022;2022-07-12T00:25:48;16.00;99.90
5779;DHT22;2916;49.798;10.022;2022-07-12T00:28:17;16.00;99.90
5779;DHT22;2916;49.798;10.022;2022-07-12T00:30:44;16.00;99.90
5779;DHT22;2916;49.798;10.022;2022-07-12T00:33:11;16.00;99.90
5779;DHT22;2916;49.798;10.022;2022-07-12T00:35:38;16.00;99.90
5779;DHT22;2916;49.798;10.022;2022-07-12T00:38:06;16.00;99.90
5779;DHT22;2916;49.798;10.022;2022-07-12T00:40:33;16.00;99.90
5779;DHT22;2916;49.798;10.022;2022-07-12T00:43:00;16.00;99.90
5779;DHT22;2916;49.798;10.022;2022-07-12T00:45:29;15.90;99.90
5779;DHT22;2916;49.798;10.022;2022-07-12T00:47:56;15.90;99.90
5779;DHT22;2916;49.798;10.022;2022-07-12T00:50:24;15.90;99.90
5779;DHT22;2916;49.798;10.022;2022-07-12T00:52:53;15.80;99.90
5779;DHT22;2916;49.798;10.022;2022-07-12T00:55:22;15.80;99.90
5779;DHT22;2916;49.798;10.022;2022-07-12T00:57:50;15.70;99.90
5779;DHT22;2916;49.798;10.022;2022-07-12T01:00:20;15.80;99.90
5779;DHT22;2916;49.798;10.022;2022-07-12T01:02:53;15.80;99.90
5779;DHT22;2916;49.798;10.022;2022-07-12T01:05:21;15.70;99.90
5779;DHT22;2916;49.798;10.022;2022-07-12T01:07:49;15.60;99.90
5779;DHT22;2916;49.798;10.022;2022-07-12T01:10:17;15.50;99.90
5779;DHT22;2916;49.798;10.022;2022-07-12T01:12:45;15.40;99.90
5779;DHT22;2916;49.798;10.022;2022-07-12T01:15:13;15.40;99.90
5779;DHT22;2916;49.798;10.022;2022-07-12T01:17:40;15.40;99.90
5779;DHT22;2916;49.798;10.022;2022-07-12T01:20:10;15.30;99.90
5779;DHT22;2916;49.798;10.022;2022-07-12T01:22:40;15.20;99.90
5779;DHT22;2916;49.798;10.022;2022-07-12T01:25:11;15.10;99.90
5779;DHT22;2916;49.798;10.022;2022-07-12T01:27:38;15.10;99.90
5779;DHT22;2916;49.798;10.022;2022-07-12T01:30:06;15.00;99.90
5779;DHT22;2916;49.798;10.022;2022-07-12T01:32:34;14.90;99.90
5779;DHT22;2916;49.798;10.022;2022-07-12T01:35:03;14.90;99.90
5779;DHT22;2916;49.798;10.022;2022-07-12T01:37:34;14.80;99.90
5779;DHT22;2916;49.798;10.022;2022-07-12T01:40:04;14.80;99.90
5779;DHT22;2916;49.798;10.022;2022-07-12T01:42:34;14.80;99.90
5779;DHT22;2916;49.798;10.022;2022-07-12T01:45:04;14.80;99.90
5779;DHT22;2916;49.798;10.022;2022-07-12T01:47:33;14.80;99.90
5779;DHT22;2916;49.798;10.022;2022-07-12T01:50:04;14.70;99.90
5779;DHT22;2916;49.798;10.022;2022-07-12T01:52:34;14.70;99.90
5779;DHT22;2916;49.798;10.022;2022-07-12T01:55:02;14.60;99.90
5779;DHT22;2916;49.798;10.022;2022-07-12T01:57:31;14.60;99.90
5779;DHT22;2916;49.798;10.022;2022-07-12T02:00:02;14.70;99.90
5779;DHT22;2916;49.798;10.022;2022-07-12T02:02:31;14.60;99.90
5779;DHT22;2916;49.798;10.022;2022-07-12T02:04:59;14.50;99.90
5779;DHT22;2916;49.798;10.022;2022-07-12T02:07:27;14.40;99.90
5779;DHT22;2916;49.798;10.022;2022-07-12T02:09:54;14.40;99.90
5779;DHT22;2916;49.798;10.022;2022-07-12T02:12:22;14.30;99.90
5779;DHT22;2916;49.798;10.022;2022-07-12T02:14:50;14.30;99.90
5779;DHT22;2916;49.798;10.022;2022-07-12T02:17:18;14.30;99.90
5779;DHT22;2916;49.798;10.022;2022-07-12T02:19:45;14.20;99.90
5779;DHT22;2916;49.798;10.022;2022-07-12T02:22:13;14.20;99.90
5779;DHT22;2916;49.798;10.022;2022-07-12T02:24:40;14.20;99.90
5779;DHT22;2916;49.798;10.022;2022-07-12T02:27:08;14.10;99.90
5779;DHT22;2916;49.798;10.022;2022-07-12T02:29:35;14.10;99.90
5779;DHT22;2916;49.798;10.022;2022-07-12T02:32:04;14.00;99.90
5779;DHT22;2916;49.798;10.022;2022-07-12T02:34:31;14.10;99.90
5779;DHT22;2916;49.798;10.022;2022-07-12T02:36:59;13.90;99.90
5779;DHT22;2916;49.798;10.022;2022-07-12T02:39:26;13.90;99.90
5779;DHT22;2916;49.798;10.022;2022-07-12T02:41:53;14.00;99.90
5779;DHT22;2916;49.798;10.022;2022-07-12T02:44:20;13.90;99.90
5779;DHT22;2916;49.798;10.022;2022-07-12T02:46:47;13.90;99.90
5779;DHT22;2916;49.798;10.022;2022-07-12T02:49:16;13.90;99.90
5779;DHT22;2916;49.798;10.022;2022-07-12T02:51:43;13.90;99.90
5779;DHT22;2916;49.798;10.022;2022-07-12T02:54:10;13.80;99.90
5779;DHT22;2916;49.798;10.022;2022-07-12T02:56:37;13.70;99.90
5779;DHT22;2916;49.798;10.022;2022-07-12T02:59:04;13.70;99.90
5779;DHT22;2916;49.798;10.022;2022-07-12T03:01:31;13.70;99.90
5779;DHT22;2916;49.798;10.022;2022-07-12T03:03:58;13.70;99.90
5779;DHT22;2916;49.798;10.022;2022-07-12T03:06:27;13.70;99.90
5779;DHT22;2916;49.798;10.022;2022-07-12T03:08:54;13.60;99.90
5779;DHT22;2916;49.798;10.022;2022-07-12T03:11:21;13.60;99.90
5779;DHT22;2916;49.798;10.022;2022-07-12T03:13:48;13.60;99.90
5779;DHT22;2916;49.798;10.022;2022-07-12T03:16:15;13.60;99.90
5779;DHT22;2916;49.798;10.022;2022-07-12T03:18:42;13.50;99.90
5779;DHT22;2916;49.798;10.022;2022-07-12T03:21:10;13.50;99.90
5779;DHT22;2916;49.798;10.022;2022-07-12T03:23:39;13.60;99.90
5779;DHT22;2916;49.798;10.022;2022-07-12T03:26:07;13.60;99.90
5779;DHT22;2916;49.798;10.022;2022-07-12T03:28:34;13.50;99.90
5779;DHT22;2916;49.798;10.022;2022-07-12T03:31:01;13.50;99.90
5779;DHT22;2916;49.798;10.022;2022-07-12T03:33:28;13.40;99.90
5779;DHT22;2916;49.798;10.022;2022-07-12T03:35:55;13.40;99.90
5779;DHT22;2916;49.798;10.022;2022-07-12T03:38:23;13.40;99.90
5779;DHT22;2916;49.798;10.022;2022-07-12T03:40:51;13.30;99.90
5779;DHT22;2916;49.798;10.022;2022-07-12T03:43:18;13.30;99.90
5779;DHT22;2916;49.798;10.022;2022-07-12T03:45:46;13.30;99.90
5779;DHT22;2916;49.798;10.022;2022-07-12T03:48:13;13.30;99.90
5779;DHT22;2916;49.798;10.022;2022-07-12T03:50:40;13.30;99.90
5779;DHT22;2916;49.798;10.022;2022-07-12T03:53:07;13.30;99.90
5779;DHT22;2916;49.798;10.022;2022-07-12T03:55:34;13.40;99.90
5779;DHT22;2916;49.798;10.022;2022-07-12T03:58:03;13.30;99.90
5779;DHT22;2916;49.798;10.022;2022-07-12T04:00:30;13.30;99.90
5779;DHT22;2916;49.798;10.022;2022-07-12T04:02:58;13.40;99.90
5779;DHT22;2916;49.798;10.022;2022-07-12T04:05:25;13.40;99.90
5779;DHT22;2916;49.798;10.022;2022-07-12T04:07:52;13.40;99.90
5779;DHT22;2916;49.798;10.022;2022-07-12T04:10:20;13.50;99.90
5779;DHT22;2916;49.798;10.022;2022-07-12T04:12:48;13.40;99.90
5779;DHT22;2916;49.798;10.022;2022-07-12T04:15:17;13.40;99.90
5779;DHT22;2916;49.798;10.022;2022-07-12T04:17:44;13.50;99.90
5779;DHT22;2916;49.798;10.022;2022-07-12T04:20:12;13.40;99.90
5779;DHT22;2916;49.798;10.022;2022-07-12T04:22:39;13.40;99.90
5779;DHT22;2916;49.798;10.022;2022-07-12T04:25:08;13.50;99.90
5779;DHT22;2916;49.798;10.022;2022-07-12T04:27:36;13.60;99.90
5779;DHT22;2916;49.798;10.022;2022-07-12T04:30:04;13.80;99.90
5779;DHT22;2916;49.798;10.022;2022-07-12T04:32:34;14.00;99.90
5779;DHT22;2916;49.798;10.022;2022-07-12T04:35:01;14.00;99.90
5779;DHT22;2916;49.798;10.022;2022-07-12T04:37:28;14.20;99.90
5779;DHT22;2916;49.798;10.022;2022-07-12T04:39:55;14.30;99.90
5779;DHT22;2916;49.798;10.022;2022-07-12T04:42:23;14.40;99.90
5779;DHT22;2916;49.798;10.022;2022-07-12T04:44:50;14.40;99.90
5779;DHT22;2916;49.798;10.022;2022-07-12T04:47:17;14.20;99.90
5779;DHT22;2916;49.798;10.022;2022-07-12T04:49:46;14.20;99.90
5779;DHT22;2916;49.798;10.022;2022-07-12T04:52:13;14.20;99.90
5779;DHT22;2916;49.798;10.022;2022-07-12T04:54:40;14.10;99.90
5779;DHT22;2916;49.798;10.022;2022-07-12T04:57:07;14.10;99.90
5779;DHT22;2916;49.798;10.022;2022-07-12T04:59:34;14.10;99.90
5779;DHT22;2916;49.798;10.022;2022-07-12T05:02:01;14.20;99.90
5779;DHT22;2916;49.798;10.022;2022-07-12T05:04:31;14.30;99.90
5779;DHT22;2916;49.798;10.022;2022-07-12T05:07:01;14.30;99.90
5779;DHT22;2916;49.798;10.022;2022-07-12T05:09:28;14.40;99.90
5779;DHT22;2916;49.798;10.022;2022-07-12T05:11:55;14.50;99.90
5779;DHT22;2916;49.798;10.022;2022-07-12T05:14:23;14.60;99.90
5779;DHT22;2916;49.798;10.022;2022-07-12T05:16:50;14.70;99.90
5779;DHT22;2916;49.798;10.022;2022-07-12T05:19:17;14.80;99.90
5779;DHT22;2916;49.798;10.022;2022-07-12T05:21:44;15.00;99.90
5779;DHT22;2916;49.798;10.022;2022-07-12T05:24:13;15.10;99.90
5779;DHT22;2916;49.798;10.022;2022-07-12T05:26:40;15.20;99.90
5779;DHT22;2916;49.798;10.022;2022-07-12T05:29:08;15.40;99.90
5779;DHT22;2916;49.798;10.022;2022-07-12T05:31:35;15.50;99.90
5779;DHT22;2916;49.798;10.022;2022-07-12T05:34:02;15.70;99.90
5779;DHT22;2916;49.798;10.022;2022-07-12T05:36:29;15.90;99.90
5779;DHT22;2916;49.798;10.022;2022-07-12T05:38:57;16.20;99.90
5779;DHT22;2916;49.798;10.022;2022-07-12T05:41:25;16.50;99.90
5779;DHT22;2916;49.798;10.022;2022-07-12T05:43:53;16.80;99.90
5779;DHT22;2916;49.798;10.022;2022-07-12T05:46:20;16.60;99.90
5779;DHT22;2916;49.798;10.022;2022-07-12T05:48:47;17.40;99.90
5779;DHT22;2916;49.798;10.022;2022-07-12T05:51:14;18.10;99.90
5779;DHT22;2916;49.798;10.022;2022-07-12T05:54:08;18.00;99.90
5779;DHT22;2916;49.798;10.022;2022-07-12T05:56:37;18.80;99.90
5779;DHT22;2916;49.798;10.022;2022-07-12T05:59:05;19.90;99.90
5779;DHT22;2916;49.798;10.022;2022-07-12T06:01:32;20.40;99.90
5779;DHT22;2916;49.798;10.022;2022-07-12T06:03:59;20.60;99.90
5779;DHT22;2916;49.798;10.022;2022-07-12T06:06:27;20.70;99.90
5779;DHT22;2916;49.798;10.022;2022-07-12T06:08:54;20.50;99.30
5779;DHT22;2916;49.798;10.022;2022-07-12T06:11:21;20.80;95.50
5779;DHT22;2916;49.798;10.022;2022-07-12T06:13:50;20.30;94.80
5779;DHT22;2916;49.798;10.022;2022-07-12T06:16:17;20.50;94.40
5779;DHT22;2916;49.798;10.022;2022-07-12T06:18:44;20.80;89.50
5779;DHT22;2916;49.798;10.022;2022-07-12T06:21:11;21.00;88.30
5779;DHT22;2916;49.798;10.022;2022-07-12T06:23:38;21.40;68.80
5779;DHT22;2916;49.798;10.022;2022-07-12T06:26:06;21.80;60.50
5779;DHT22;2916;49.798;10.022;2022-07-12T06:28:33;22.10;46.10
5779;DHT22;2916;49.798;10.022;2022-07-12T06:31:02;22.30;36.80
5779;DHT22;2916;49.798;10.022;2022-07-12T06:33:30;22.40;36.10
5779;DHT22;2916;49.798;10.022;2022-07-12T06:35:58;22.80;23.90
5779;DHT22;2916;49.798;10.022;2022-07-12T06:38:25;23.30;20.80
5779;DHT22;2916;49.798;10.022;2022-07-12T06:40:52;23.70;9.80
5779;DHT22;2916;49.798;10.022;2022-07-12T06:43:19;23.20;8.70
5779;DHT22;2916;49.798;10.022;2022-07-12T06:45:47;23.20;10.00
5779;DHT22;2916;49.798;10.022;2022-07-12T06:48:15;23.70;11.90
5779;DHT22;2916;49.798;10.022;2022-07-12T06:50:43;23.30;4.20
5779;DHT22;2916;49.798;10.022;2022-07-12T06:53:11;23.90;5.20
5779;DHT22;2916;49.798;10.022;2022-07-12T06:55:38;25.10;1.00
5779;DHT22;2916;49.798;10.022;2022-07-12T06:58:06;24.80;1.00
5779;DHT22;2916;49.798;10.022;2022-07-12T07:00:33;25.10;1.00
5779;DHT22;2916;49.798;10.022;2022-07-12T07:03:00;25.60;1.00
5779;DHT22;2916;49.798;10.022;2022-07-12T07:05:29;26.30;1.00
5779;DHT22;2916;49.798;10.022;2022-07-12T07:07:56;26.20;1.00
5779;DHT22;2916;49.798;10.022;2022-07-12T07:10:23;26.50;1.00
5779;DHT22;2916;49.798;10.022;2022-07-12T07:12:50;26.70;1.00
5779;DHT22;2916;49.798;10.022;2022-07-12T07:15:18;27.30;1.00
5779;DHT22;2916;49.798;10.022;2022-07-12T07:17:45;27.30;1.00
5779;DHT22;2916;49.798;10.022;2022-07-12T07:20:12;27.20;1.00
5779;DHT22;2916;49.798;10.022;2022-07-12T07:22:41;26.40;1.00
5779;DHT22;2916;49.798;10.022;2022-07-12T07:25:08;26.40;1.00
5779;DHT22;2916;49.798;10.022;2022-07-12T07:27:35;26.00;1.00
5779;DHT22;2916;49.798;10.022;2022-07-12T07:30:04;25.40;1.00
5779;DHT22;2916;49.798;10.022;2022-07-12T07:32:46;24.80;1.00
5779;DHT22;2916;49.798;10.022;2022-07-12T07:35:13;25.30;1.00
5779;DHT22;2916;49.798;10.022;2022-07-12T07:37:42;25.00;1.00
5779;DHT22;2916;49.798;10.022;2022-07-12T07:40:10;25.40;1.00
5779;DHT22;2916;49.798;10.022;2022-07-12T07:42:37;25.60;1.00
5779;DHT22;2916;49.798;10.022;2022-07-12T07:45:05;26.10;1.00
5779;DHT22;2916;49.798;10.022;2022-07-12T07:47:42;25.80;1.00
5779;DHT22;2916;49.798;10.022;2022-07-12T07:50:10;26.40;1.00
5779;DHT22;2916;49.798;10.022;2022-07-12T07:52:38;26.50;1.00
5779;DHT22;2916;49.798;10.022;2022-07-12T07:55:07;27.60;1.00
5779;DHT22;2916;49.798;10.022;2022-07-12T07:57:35;27.10;1.00
5779;DHT22;2916;49.798;10.022;2022-07-12T08:00:03;26.90;1.00
5779;DHT22;2916;49.798;10.022;2022-07-12T08:02:31;26.50;1.00
5779;DHT22;2916;49.798;10.022;2022-07-12T08:04:59;27.90;1.00
5779;DHT22;2916;49.798;10.022;2022-07-12T08:07:26;27.90;1.00
5779;DHT22;2916;49.798;10.022;2022-07-12T08:09:53;26.60;1.00
5779;DHT22;2916;49.798;10.022;2022-07-12T08:12:22;25.40;1.00
5779;DHT22;2916;49.798;10.022;2022-07-12T08:14:49;25.30;1.00
5779;DHT22;2916;49.798;10.022;2022-07-12T08:17:16;27.00;1.00
5779;DHT22;2916;49.798;10.022;2022-07-12T08:19:43;28.00;1.00
5779;DHT22;2916;49.798;10.022;2022-07-12T08:22:10;28.00;1.00
5779;DHT22;2916;49.798;10.022;2022-07-12T08:24:37;28.20;1.00
5779;DHT22;2916;49.798;10.022;2022-07-12T08:27:05;27.80;1.00
5779;DHT22;2916;49.798;10.022;2022-07-12T08:29:33;27.50;1.00
5779;DHT22;2916;49.798;10.022;2022-07-12T08:32:01;27.40;1.00
5779;DHT22;2916;49.798;10.022;2022-07-12T08:34:28;27.90;1.00
5779;DHT22;2916;49.798;10.022;2022-07-12T08:36:57;26.40;1.00
5779;DHT22;2916;49.798;10.022;2022-07-12T08:39:24;28.50;1.00
5779;DHT22;2916;49.798;10.022;2022-07-12T08:41:51;29.20;1.00
5779;DHT22;2916;49.798;10.022;2022-07-12T08:44:18;28.70;1.00
5779;DHT22;2916;49.798;10.022;2022-07-12T08:46:47;28.60;1.00
5779;DHT22;2916;49.798;10.022;2022-07-12T08:49:14;29.20;1.00
5779;DHT22;2916;49.798;10.022;2022-07-12T08:51:42;29.50;1.00
5779;DHT22;2916;49.798;10.022;2022-07-12T08:54:12;30.20;1.00
5779;DHT22;2916;49.798;10.022;2022-07-12T08:56:42;29.40;1.00
5779;DHT22;2916;49.798;10.022;2022-07-12T08:59:16;30.40;1.00
5779;DHT22;2916;49.798;10.022;2022-07-12T09:01:48;29.40;1.00
5779;DHT22;2916;49.798;10.022;2022-07-12T09:04:18;29.70;1.00
5779;DHT22;2916;49.798;10.022;2022-07-12T09:06:46;29.20;1.00
5779;DHT22;2916;49.798;10.022;2022-07-12T09:09:26;27.60;1.00
5779;DHT22;2916;49.798;10.022;2022-07-12T09:11:55;27.30;1.00
5779;DHT22;2916;49.798;10.022;2022-07-12T09:14:22;27.90;1.00
5779;DHT22;2916;49.798;10.022;2022-07-12T09:17:01;28.40;1.00
5779;DHT22;2916;49.798;10.022;2022-07-12T09:19:31;28.10;1.00
5779;DHT22;2916;49.798;10.022;2022-07-12T09:21:58;28.60;1.00
5779;DHT22;2916;49.798;10.022;2022-07-12T09:24:27;27.80;1.00
5779;DHT22;2916;49.798;10.022;2022-07-12T09:26:56;27.20;1.00
5779;DHT22;2916;49.798;10.022;2022-07-12T09:29:26;27.20;1.00
5779;DHT22;2916;49.798;10.022;2022-07-12T09:31:54;27.10;1.00
5779;DHT22;2916;49.798;10.022;2022-07-12T09:34:40;26.50;1.00
5779;DHT22;2916;49.798;10.022;2022-07-12T09:37:25;27.00;1.00
5779;DHT22;2916;49.798;10.022;2022-07-12T09:39:53;26.70;1.00
5779;DHT22;2916;49.798;10.022;2022-07-12T09:42:23;27.10;1.00
5779;DHT22;2916;49.798;10.022;2022-07-12T09:44:53;28.40;1.00
5779;DHT22;2916;49.798;10.022;2022-07-12T09:47:22;28.50;1.00
5779;DHT22;2916;49.798;10.022;2022-07-12T09:49:52;29.10;1.00
5779;DHT22;2916;49.798;10.022;2022-07-12T09:52:21;28.30;1.00
5779;DHT22;2916;49.798;10.022;2022-07-12T09:54:50;27.90;1.00
5779;DHT22;2916;49.798;10.022;2022-07-12T09:57:21;27.60;1.00
5779;DHT22;2916;49.798;10.022;2022-07-12T09:59:53;27.40;1.00
5779;DHT22;2916;49.798;10.022;2022-07-12T10:02:22;27.20;1.00
5779;DHT22;2916;49.798;10.022;2022-07-12T10:04:50;28.30;1.00
5779;DHT22;2916;49.798;10.022;2022-07-12T10:07:19;29.00;1.00
5779;DHT22;2916;49.798;10.022;2022-07-12T10:09:48;29.50;1.00
5779;DHT22;2916;49.798;10.022;2022-07-12T10:12:20;28.70;1.00
5779;DHT22;2916;49.798;10.022;2022-07-12T10:14:53;29.90;1.00
5779;DHT22;2916;49.798;10.022;2022-07-12T10:17:26;28.70;1.00
5779;DHT22;2916;49.798;10.022;2022-07-12T10:20:17;29.30;1.00
5779;DHT22;2916;49.798;10.022;2022-07-12T10:22:47;29.90;1.00
5779;DHT22;2916;49.798;10.022;2022-07-12T10:25:31;29.40;1.00
5779;DHT22;2916;49.798;10.022;2022-07-12T10:28:01;30.00;1.00
5779;DHT22;2916;49.798;10.022;2022-07-12T10:30:30;29.00;1.00
5779;DHT22;2916;49.798;10.022;2022-07-12T10:33:15;29.60;1.00
5779;DHT22;2916;49.798;10.022;2022-07-12T10:36:00;30.40;1.00
5779;DHT22;2916;49.798;10.022;2022-07-12T10:38:29;29.20;1.00
5779;DHT22;2916;49.798;10.022;2022-07-12T10:40:56;29.60;1.00
5779;DHT22;2916;49.798;10.022;2022-07-12T10:43:29;30.20;1.00
5779;DHT22;2916;49.798;10.022;2022-07-12T10:46:17;30.60;1.00
5779;DHT22;2916;49.798;10.022;2022-07-12T10:48:46;30.50;1.00
5779;DHT22;2916;49.798;10.022;2022-07-12T10:51:16;29.00;1.00
5779;DHT22;2916;49.798;10.022;2022-07-12T10:53:46;29.00;1.00
5779;DHT22;2916;49.798;10.022;2022-07-12T10:56:18;29.60;1.00
5779;DHT22;2916;49.798;10.022;2022-07-12T10:58:48;29.60;1.00
5779;DHT22;2916;49.798;10.022;2022-07-12T11:01:19;29.60;1.00
5779;DHT22;2916;49.798;10.022;2022-07-12T11:03:49;29.60;1.00
5779;DHT22;2916;49.798;10.022;2022-07-12T11:06:21;29.20;1.00
5779;DHT22;2916;49.798;10.022;2022-07-12T11:08:51;28.00;1.00
5779;DHT22;2916;49.798;10.022;2022-07-12T11:11:21;28.40;1.00
5779;DHT22;2916;49.798;10.022;2022-07-12T11:13:50;29.20;1.00
5779;DHT22;2916;49.798;10.022;2022-07-12T11:16:18;29.40;1.00
5779;DHT22;2916;49.798;10.022;2022-07-12T11:18:46;29.00;1.00
5779;DHT22;2916;49.798;10.022;2022-07-12T11:21:13;29.60;1.00
5779;DHT22;2916;49.798;10.022;2022-07-12T11:23:42;29.00;1.00
5779;DHT22;2916;49.798;10.022;2022-07-12T11:26:11;29.10;1.00
5779;DHT22;2916;49.798;10.022;2022-07-12T11:28:41;28.70;1.00
5779;DHT22;2916;49.798;10.022;2022-07-12T11:31:10;28.40;1.00
5779;DHT22;2916;49.798;10.022;2022-07-12T11:33:39;28.60;1.00
5779;DHT22;2916;49.798;10.022;2022-07-12T11:36:09;29.20;1.00
5779;DHT22;2916;49.798;10.022;2022-07-12T11:38:39;29.80;1.00
5779;DHT22;2916;49.798;10.022;2022-07-12T11:41:09;29.90;1.00
5779;DHT22;2916;49.798;10.022;2022-07-12T11:43:38;30.40;1.00
5779;DHT22;2916;49.798;10.022;2022-07-12T11:46:07;30.80;1.00
5779;DHT22;2916;49.798;10.022;2022-07-12T11:48:36;30.90;1.00
5779;DHT22;2916;49.798;10.022;2022-07-12T11:51:05;30.70;1.00
5779;DHT22;2916;49.798;10.022;2022-07-12T11:53:35;29.90;1.00
5779;DHT22;2916;49.798;10.022;2022-07-12T11:56:04;30.60;1.00
5779;DHT22;2916;49.798;10.022;2022-07-12T11:58:35;30.70;1.00
5779;DHT22;2916;49.798;10.022;2022-07-12T12:01:05;29.90;1.00
5779;DHT22;2916;49.798;10.022;2022-07-12T12:03:42;30.70;1.00
5779;DHT22;2916;49.798;10.022;2022-07-12T12:06:11;30.60;1.00
5779;DHT22;2916;49.798;10.022;2022-07-12T12:08:39;31.30;1.00
5779;DHT22;2916;49.798;10.022;2022-07-12T12:11:06;31.30;1.00
5779;DHT22;2916;49.798;10.022;2022-07-12T12:13:36;31.50;1.00
5779;DHT22;2916;49.798;10.022;2022-07-12T12:16:04;31.60;1.00
5779;DHT22;2916;49.798;10.022;2022-07-12T12:18:33;31.50;1.00
5779;DHT22;2916;49.798;10.022;2022-07-12T12:21:03;31.50;1.00
5779;DHT22;2916;49.798;10.022;2022-07-12T12:23:33;31.70;1.00
5779;DHT22;2916;49.798;10.022;2022-07-12T12:26:15;31.60;1.00
5779;DHT22;2916;49.798;10.022;2022-07-12T12:28:53;31.60;1.00
5779;DHT22;2916;49.798;10.022;2022-07-12T12:31:22;31.00;1.00
5779;DHT22;2916;49.798;10.022;2022-07-12T12:33:51;31.20;1.00
5779;DHT22;2916;49.798;10.022;2022-07-12T12:36:23;30.30;1.00
5779;DHT22;2916;49.798;10.022;2022-07-12T12:38:53;30.90;1.00
5779;DHT22;2916;49.798;10.022;2022-07-12T12:41:22;31.00;1.00
5779;DHT22;2916;49.798;10.022;2022-07-12T12:43:59;30.90;1.00
5779;DHT22;2916;49.798;10.022;2022-07-12T12:46:46;31.00;1.00
5779;DHT22;2916;49.798;10.022;2022-07-12T12:49:19;30.90;1.00
5779;DHT22;2916;49.798;10.022;2022-07-12T12:51:54;30.90;1.00
5779;DHT22;2916;49.798;10.022;2022-07-12T12:54:32;31.60;1.00
5779;DHT22;2916;49.798;10.022;2022-07-12T12:57:00;31.40;1.00
5779;DHT22;2916;49.798;10.022;2022-07-12T12:59:29;31.70;1.00
5779;DHT22;2916;49.798;10.022;2022-07-12T13:01:56;31.80;1.00
5779;DHT22;2916;49.798;10.022;2022-07-12T13:04:27;31.00;1.00
5779;DHT22;2916;49.798;10.022;2022-07-12T13:06:56;31.10;1.00
5779;DHT22;2916;49.798;10.022;2022-07-12T13:09:23;31.10;1.00
5779;DHT22;2916;49.798;10.022;2022-07-12T13:11:50;30.80;1.00
5779;DHT22;2916;49.798;10.022;2022-07-12T13:14:18;30.30;1.00
5779;DHT22;2916;49.798;10.022;2022-07-12T13:16:47;30.40;1.00
5779;DHT22;2916;49.798;10.022;2022-07-12T13:19:15;30.70;1.00
5779;DHT22;2916;49.798;10.022;2022-07-12T13:21:42;30.90;1.00
5779;DHT22;2916;49.798;10.022;2022-07-12T13:24:09;31.00;1.00
5779;DHT22;2916;49.798;10.022;2022-07-12T13:26:37;31.30;1.00
5779;DHT22;2916;49.798;10.022;2022-07-12T13:29:04;31.20;1.00
5779;DHT22;2916;49.798;10.022;2022-07-12T13:31:31;31.40;1.00
5779;DHT22;2916;49.798;10.022;2022-07-12T13:34:00;31.10;1.00
5779;DHT22;2916;49.798;10.022;2022-07-12T13:36:27;30.40;1.00
5779;DHT22;2916;49.798;10.022;2022-07-12T13:38:54;29.70;1.00
5779;DHT22;2916;49.798;10.022;2022-07-12T13:41:41;30.50;1.00
5779;DHT22;2916;49.798;10.022;2022-07-12T13:44:08;30.90;1.00
5779;DHT22;2916;49.798;10.022;2022-07-12T13:46:36;31.10;1.00
5779;DHT22;2916;49.798;10.022;2022-07-12T13:49:04;31.00;1.00
5779;DHT22;2916;49.798;10.022;2022-07-12T13:51:31;31.10;1.00
5779;DHT22;2916;49.798;10.022;2022-07-12T13:53:59;31.30;1.00
5779;DHT22;2916;49.798;10.022;2022-07-12T13:56:26;31.40;1.00
5779;DHT22;2916;49.798;10.022;2022-07-12T13:58:53;31.40;1.00
5779;DHT22;2916;49.798;10.022;2022-07-12T14:01:20;30.50;1.00
5779;DHT22;2916;49.798;10.022;2022-07-12T14:03:47;30.40;1.00
5779;DHT22;2916;49.798;10.022;2022-07-12T14:06:16;30.50;1.00
5779;DHT22;2916;49.798;10.022;2022-07-12T14:08:43;30.50;1.00
5779;DHT22;2916;49.798;10.022;2022-07-12T14:11:10;30.40;1.00
5779;DHT22;2916;49.798;10.022;2022-07-12T14:13:38;30.20;1.00
5779;DHT22;2916;49.798;10.022;2022-07-12T14:16:05;30.80;1.00
5779;DHT22;2916;49.798;10.022;2022-07-12T14:18:33;29.90;1.00
5779;DHT22;2916;49.798;10.022;2022-07-12T14:21:00;30.30;1.00
5779;DHT22;2916;49.798;10.022;2022-07-12T14:23:28;30.40;1.00
5779;DHT22;2916;49.798;10.022;2022-07-12T14:25:56;30.10;1.00
5779;DHT22;2916;49.798;10.022;2022-07-12T14:28:23;30.40;1.00
5779;DHT22;2916;49.798;10.022;2022-07-12T14:30:50;30.60;1.00
5779;DHT22;2916;49.798;10.022;2022-07-12T14:33:18;31.20;1.00
5779;DHT22;2916;49.798;10.022;2022-07-12T14:35:46;31.20;1.00
5779;DHT22;2916;49.798;10.022;2022-07-12T14:38:13;31.20;1.00
5779;DHT22;2916;49.798;10.022;2022-07-12T14:40:42;31.10;1.00
5779;DHT22;2916;49.798;10.022;2022-07-12T14:43:10;31.30;1.00
5779;DHT22;2916;49.798;10.022;2022-07-12T14:45:37;31.10;1.00
5779;DHT22;2916;49.798;10.022;2022-07-12T14:48:07;30.80;1.00
5779;DHT22;2916;49.798;10.022;2022-07-12T14:50:34;30.60;1.00
5779;DHT22;2916;49.798;10.022;2022-07-12T14:53:02;31.00;1.00
5779;DHT22;2916;49.798;10.022;2022-07-12T14:55:29;31.10;1.00
5779;DHT22;2916;49.798;10.022;2022-07-12T14:57:57;31.00;1.00
5779;DHT22;2916;49.798;10.022;2022-07-12T15:00:25;31.00;1.00
5779;DHT22;2916;49.798;10.022;2022-07-12T15:02:53;30.40;1.00
5779;DHT22;2916;49.798;10.022;2022-07-12T15:05:24;30.20;1.00
5779;DHT22;2916;49.798;10.022;2022-07-12T15:07:58;30.50;1.00
5779;DHT22;2916;49.798;10.022;2022-07-12T15:10:25;30.80;1.00
5779;DHT22;2916;49.798;10.022;2022-07-12T15:12:52;30.90;1.00
5779;DHT22;2916;49.798;10.022;2022-07-12T15:15:21;31.00;1.00
5779;DHT22;2916;49.798;10.022;2022-07-12T15:17:49;31.00;1.00
5779;DHT22;2916;49.798;10.022;2022-07-12T15:20:16;30.80;1.00
5779;DHT22;2916;49.798;10.022;2022-07-12T15:22:43;30.90;1.00
5779;DHT22;2916;49.798;10.022;2022-07-12T15:25:10;30.90;1.00
5779;DHT22;2916;49.798;10.022;2022-07-12T15:27:38;31.00;1.00
5779;DHT22;2916;49.798;10.022;2022-07-12T15:30:06;31.00;1.00
5779;DHT22;2916;49.798;10.022;2022-07-12T15:32:35;31.00;1.00
5779;DHT22;2916;49.798;10.022;2022-07-12T15:35:02;30.80;1.00
5779;DHT22;2916;49.798;10.022;2022-07-12T15:37:29;31.20;1.00
5779;DHT22;2916;49.798;10.022;2022-07-12T15:39:56;29.70;1.00
5779;DHT22;2916;49.798;10.022;2022-07-12T15:42:23;29.80;1.00
5779;DHT22;2916;49.798;10.022;2022-07-12T15:44:51;30.30;1.00
5779;DHT22;2916;49.798;10.022;2022-07-12T15:47:18;30.40;1.00
5779;DHT22;2916;49.798;10.022;2022-07-12T15:49:46;30.50;1.00
5779;DHT22;2916;49.798;10.022;2022-07-12T15:52:13;30.70;1.00
5779;DHT22;2916;49.798;10.022;2022-07-12T15:54:58;30.70;1.00
5779;DHT22;2916;49.798;10.022;2022-07-12T15:57:25;30.70;1.00
5779;DHT22;2916;49.798;10.022;2022-07-12T15:59:52;30.70;1.00
5779;DHT22;2916;49.798;10.022;2022-07-12T16:02:20;30.50;1.00
5779;DHT22;2916;49.798;10.022;2022-07-12T16:04:48;30.90;1.00